Prineville, OR (97754)

7:13 PM PST on February 13, 2016 (GMT -0800)
BACK PASTURE | | Change Station
CLOSE
Current Station
Personal Weather Station
Location: PRINEVILLE, OR
Elevation: 2930 ft
Nearby Weather Stations

Elev 2930 ft 44.36 °N, 120.89 °W | Updated 20 seconds ago

Mostly Cloudy
Mostly Cloudy
45.8 °F
Feels Like 46 °F
N
2.0
Wind Variable Wind from WSW
Gusts 2.0 mph

Today
High -- | Low -- °F
--% Chance of Precip.
Yesterday
High -- | Low -- °F
Precip. -- in
Pressure 30.23 in
Visibility 10.0 miles
Clouds Mostly Cloudy 6500 ft
Windchill 46 °F
Dew Point 31 °F
Humidity 57%
Rainfall 0.00 in
Snow Depth Not available.
7:06 AM 5:29 PM
Waxing Crescent, 37% visible
METAR KRDM 140256Z AUTO 34005KT 10SM BKN065 07/M02 A3018 RMK AO2 SLP235 T00671022 53000
Pressure 30.23 in
Visibility 10.0 miles
Clouds Mostly Cloudy 6500 ft
Windchill 46 °F
Dew Point 31 °F
Humidity 57%
Rainfall 0.00 in
Snow Depth Not available.
7:06 AM 5:29 PM
Waxing Crescent, 37% visible
METAR KRDM 140256Z AUTO 34005KT 10SM BKN065 07/M02 A3018 RMK AO2 SLP235 T00671022 53000

10-Day Weather Forecast

Almanac

Astronomy

Feb. 13, 2016 Rise Set
Actual Time
Civil Twilight
Nautical Twilight
Astronomical Twilight
Moon
Length of Visible Light
Length of Day
Tomorrow will be .
, % of the Moon is Illuminated

Today's Extremes

State Highs State Lows

Community

WunderPhotos

Upload Photos

1,892,733 photos uploaded!

WunderBlog® & News

Nearby

Air Quality

  Air Quality AQ Index Pollutant
Not available.

Snow Depth

Station Depth Elevation

Earthquake Activity

City Distance Mag. Time & Date
Minimum magnitude displayed is 2.5.

Coastal Water Temperatures

Place Temperature

Stations

Nearby Weather Stations

Station Location Temp. Windchill Dew Point Humidity Wind Precip. Elev Updated Type
                   

Watches & Warnings

There are currently no watches in effect.